createdAt,value
2018-08-06T00:00:37.182Z,19.97
2018-08-06T00:03:07.421Z,19.95
2018-08-06T00:05:37.548Z,19.88
2018-08-06T00:08:08.716Z,19.80
2018-08-06T00:10:38.832Z,19.76
2018-08-06T00:13:08.944Z,19.75
2018-08-06T00:15:39.043Z,19.68
2018-08-06T00:18:09.171Z,19.64
2018-08-06T00:20:39.264Z,19.64
2018-08-06T00:23:09.388Z,19.60
2018-08-06T00:25:39.554Z,19.59
2018-08-06T00:28:09.622Z,19.50
2018-08-06T00:30:39.271Z,19.54
2018-08-06T00:33:09.329Z,19.50
2018-08-06T00:35:39.419Z,19.41
2018-08-06T00:38:09.518Z,19.38
2018-08-06T00:40:39.596Z,19.27
2018-08-06T00:43:09.651Z,19.23
2018-08-06T00:45:39.734Z,19.18
2018-08-06T00:48:10.505Z,19.21
2018-08-06T00:50:40.543Z,19.12
2018-08-06T00:53:10.686Z,19.09
2018-08-06T00:55:40.733Z,19.05
2018-08-06T00:58:10.822Z,18.99
2018-08-06T01:00:40.906Z,18.99
2018-08-06T01:03:11.041Z,18.97
2018-08-06T01:05:41.161Z,18.91
2018-08-06T01:08:11.287Z,18.89
2018-08-06T01:10:41.416Z,18.87
2018-08-06T01:13:11.580Z,18.96
2018-08-06T01:15:41.684Z,19.08
2018-08-06T01:18:11.811Z,19.17
2018-08-06T01:20:41.908Z,19.14
2018-08-06T01:23:12.153Z,19.21
2018-08-06T01:25:42.249Z,19.24
2018-08-06T01:28:12.318Z,19.15
2018-08-06T01:30:42.385Z,19.07
2018-08-06T01:33:12.523Z,19.00
2018-08-06T01:35:42.136Z,18.97
2018-08-06T01:38:12.275Z,18.91
2018-08-06T01:40:42.379Z,18.87
2018-08-06T01:43:12.495Z,18.83
2018-08-06T01:45:42.578Z,18.76
2018-08-06T01:48:12.715Z,18.68
2018-08-06T01:50:42.789Z,18.65
2018-08-06T01:53:12.842Z,18.61
2018-08-06T01:55:42.870Z,18.52
2018-08-06T01:58:12.911Z,18.50
2018-08-06T02:00:43.008Z,18.46
2018-08-06T02:03:13.077Z,18.44
2018-08-06T02:05:43.176Z,18.42
2018-08-06T02:08:13.411Z,18.33
2018-08-06T02:10:43.449Z,18.32
2018-08-06T02:13:13.535Z,18.26
2018-08-06T02:15:43.602Z,18.22
2018-08-06T02:18:13.657Z,18.14
2018-08-06T02:20:43.704Z,18.14
2018-08-06T02:23:13.838Z,18.18
2018-08-06T02:25:43.913Z,18.17
2018-08-06T02:28:14.038Z,18.16
2018-08-06T02:30:44.121Z,18.11
2018-08-06T02:33:13.823Z,18.07
2018-08-06T02:35:44.920Z,18.04
2018-08-06T02:38:15.033Z,18.03
2018-08-06T02:40:45.077Z,17.93
2018-08-06T02:43:16.140Z,17.93
2018-08-06T02:45:46.297Z,17.95
2018-08-06T02:48:16.403Z,18.04
2018-08-06T02:50:46.570Z,18.00
2018-08-06T02:53:16.747Z,17.98
2018-08-06T02:55:47.183Z,17.90
2018-08-06T02:58:17.546Z,17.89
2018-08-06T03:00:47.643Z,17.88
2018-08-06T03:03:17.719Z,17.85
2018-08-06T03:05:47.871Z,17.87
2018-08-06T03:08:17.953Z,17.90
2018-08-06T03:10:48.033Z,17.91
2018-08-06T03:13:18.071Z,17.86
2018-08-06T03:15:47.759Z,17.85
2018-08-06T03:18:17.849Z,17.91
2018-08-06T03:20:47.972Z,17.89
2018-08-06T03:23:18.014Z,17.81
2018-08-06T03:25:48.081Z,17.87
2018-08-06T03:28:18.081Z,17.77
2018-08-06T03:30:48.245Z,17.72
2018-08-06T03:33:18.375Z,17.73
2018-08-06T03:35:48.478Z,17.75
2018-08-06T03:38:18.526Z,17.85
2018-08-06T03:40:48.613Z,18.05
2018-08-06T03:43:18.676Z,18.13
2018-08-06T03:45:48.852Z,18.37
2018-08-06T03:48:18.548Z,18.52
2018-08-06T03:50:48.716Z,18.69
2018-08-06T03:53:18.848Z,18.83
2018-08-06T03:55:49.373Z,18.93
2018-08-06T03:58:19.444Z,18.98
2018-08-06T04:00:50.481Z,19.10
2018-08-06T04:03:20.554Z,19.08
2018-08-06T04:05:50.269Z,19.19
2018-08-06T04:08:20.356Z,19.27
2018-08-06T04:10:51.401Z,19.28
2018-08-06T04:13:21.557Z,19.30
2018-08-06T04:15:51.637Z,19.31
2018-08-06T04:18:21.729Z,19.37
2018-08-06T04:20:51.953Z,19.45
2018-08-06T04:23:22.068Z,19.42
2018-08-06T04:25:52.143Z,19.40
2018-08-06T04:28:22.237Z,19.47
2018-08-06T04:30:52.347Z,19.54
2018-08-06T04:33:22.454Z,19.60
2018-08-06T04:35:52.540Z,19.64
2018-08-06T04:38:22.260Z,19.67
2018-08-06T04:40:52.338Z,19.72
2018-08-06T04:43:22.454Z,19.68
2018-08-06T04:45:52.638Z,19.64
2018-08-06T04:48:23.603Z,19.63
2018-08-06T04:50:53.681Z,19.57
2018-08-06T04:53:23.770Z,19.66
2018-08-06T04:55:53.902Z,19.73
2018-08-06T04:58:23.978Z,19.81
2018-08-06T05:00:54.127Z,20.08
2018-08-06T05:03:24.233Z,20.11
2018-08-06T05:05:54.841Z,20.26
2018-08-06T05:08:24.929Z,20.36
2018-08-06T05:10:54.979Z,20.50
2018-08-06T05:13:25.109Z,20.58
2018-08-06T05:15:55.193Z,20.76
2018-08-06T05:18:25.265Z,20.82
2018-08-06T05:20:55.448Z,20.92
2018-08-06T05:23:55.851Z,21.13
2018-08-06T05:26:27.097Z,21.29
2018-08-06T05:28:57.330Z,21.38
2018-08-06T05:31:28.427Z,21.49
2018-08-06T05:33:59.445Z,21.56
2018-08-06T05:36:29.614Z,21.63
2018-08-06T05:38:59.735Z,21.74
2018-08-06T05:41:29.897Z,21.89
2018-08-06T05:43:59.982Z,21.94
2018-08-06T05:46:30.126Z,22.01
2018-08-06T05:49:00.267Z,22.14
2018-08-06T05:51:30.315Z,22.12
2018-08-06T05:54:00.383Z,22.15
2018-08-06T05:56:30.677Z,22.21
2018-08-06T05:59:00.757Z,22.39
2018-08-06T06:01:30.824Z,22.37
2018-08-06T06:04:00.997Z,22.47
2018-08-06T06:06:31.063Z,22.56
2018-08-06T06:09:00.705Z,22.71
2018-08-06T06:11:30.782Z,22.77
2018-08-06T06:14:00.914Z,22.80
2018-08-06T06:16:30.941Z,22.89
2018-08-06T06:19:00.614Z,23.01
2018-08-06T06:21:30.704Z,23.09
2018-08-06T06:24:00.727Z,23.13
2018-08-06T06:26:30.989Z,23.09
2018-08-06T06:29:01.467Z,23.19
2018-08-06T06:31:31.473Z,23.30
2018-08-06T06:34:01.509Z,23.16
2018-08-06T06:36:31.498Z,23.27
2018-08-06T06:39:01.549Z,23.35
2018-08-06T06:41:31.566Z,23.37
2018-08-06T06:44:01.623Z,23.33
2018-08-06T06:46:31.694Z,23.38
2018-08-06T06:49:02.042Z,23.38
2018-08-06T06:51:32.102Z,23.42
2018-08-06T06:54:02.290Z,23.49
2018-08-06T06:56:32.273Z,23.58
2018-08-06T06:59:02.418Z,23.61
2018-08-06T07:01:32.424Z,23.73
2018-08-06T07:04:02.502Z,23.80
2018-08-06T07:06:32.643Z,23.95
2018-08-06T07:09:02.710Z,24.10
2018-08-06T07:11:32.716Z,24.27
2018-08-06T07:14:02.849Z,24.36
2018-08-06T07:16:32.885Z,24.38
2018-08-06T07:19:03.031Z,24.47
2018-08-06T07:21:33.088Z,24.53
2018-08-06T07:24:03.220Z,24.54
2018-08-06T07:26:33.272Z,24.52
2018-08-06T07:29:03.371Z,24.72
2018-08-06T07:31:33.422Z,24.93
2018-08-06T07:34:03.535Z,25.08
2018-08-06T07:36:33.646Z,25.22
2018-08-06T07:39:03.795Z,25.30
2018-08-06T07:41:33.460Z,25.41
2018-08-06T07:44:03.567Z,25.43
2018-08-06T07:46:33.652Z,25.59
2018-08-06T07:49:03.837Z,25.67
2018-08-06T07:51:34.017Z,25.69
2018-08-06T07:54:04.089Z,25.82
2018-08-06T07:56:34.060Z,25.81
2018-08-06T07:59:04.171Z,25.80
2018-08-06T08:01:33.788Z,25.85
2018-08-06T08:04:03.898Z,25.87
2018-08-06T08:06:33.886Z,25.89
2018-08-06T08:09:04.723Z,26.04
2018-08-06T08:11:34.799Z,26.12
2018-08-06T08:14:04.931Z,26.06
2018-08-06T08:16:35.627Z,26.16
2018-08-06T08:19:05.890Z,26.23
2018-08-06T08:21:35.968Z,26.32
2018-08-06T08:24:06.146Z,26.28
2018-08-06T08:26:36.507Z,26.43
2018-08-06T08:29:06.755Z,26.46
2018-08-06T08:31:36.953Z,26.58
2018-08-06T08:34:07.233Z,26.78
2018-08-06T08:36:37.199Z,26.71
2018-08-06T08:39:11.604Z,26.79
2018-08-06T08:41:41.809Z,26.93
2018-08-06T08:44:11.872Z,26.93
2018-08-06T08:46:41.978Z,26.96
2018-08-06T08:49:12.070Z,26.93
2018-08-06T08:51:42.187Z,27.18
2018-08-06T08:54:12.251Z,27.39
2018-08-06T08:56:42.618Z,27.46
2018-08-06T08:59:12.625Z,27.50
2018-08-06T09:01:43.175Z,27.61
2018-08-06T09:04:13.229Z,27.82
2018-08-06T09:06:43.373Z,27.87
2018-08-06T09:09:14.168Z,28.13
2018-08-06T09:11:44.288Z,28.10
2018-08-06T09:14:14.342Z,28.27
2018-08-06T09:16:44.479Z,28.46
2018-08-06T09:19:14.487Z,28.65
2018-08-06T09:21:44.644Z,28.78
2018-08-06T09:24:14.751Z,28.84
2018-08-06T09:26:44.824Z,28.84
2018-08-06T09:29:14.822Z,28.86
2018-08-06T09:31:45.493Z,28.90
2018-08-06T09:34:15.107Z,28.96
2018-08-06T09:36:45.152Z,29.09
2018-08-06T09:39:15.277Z,29.25
2018-08-06T09:41:45.356Z,29.61
2018-08-06T09:44:15.438Z,29.81
2018-08-06T09:46:45.646Z,29.71
2018-08-06T09:49:15.652Z,29.83
2018-08-06T09:51:45.736Z,29.78
2018-08-06T09:54:15.846Z,29.44
2018-08-06T09:56:46.186Z,29.76
2018-08-06T09:59:16.228Z,29.58
2018-08-06T10:01:51.333Z,29.61
2018-08-06T10:04:21.465Z,29.89
2018-08-06T10:06:51.561Z,30.02
2018-08-06T10:09:21.622Z,30.06
2018-08-06T10:11:51.774Z,30.23
2018-08-06T10:14:21.888Z,30.34
2018-08-06T10:16:52.021Z,30.28
2018-08-06T10:19:22.117Z,30.37
2018-08-06T10:21:52.101Z,30.39
2018-08-06T10:24:23.108Z,30.53
2018-08-06T10:26:53.147Z,30.55
2018-08-06T10:29:23.914Z,30.63
2018-08-06T10:31:53.988Z,30.63
2018-08-06T10:34:24.053Z,30.71
2018-08-06T10:36:54.102Z,31.00
2018-08-06T10:39:24.156Z,30.82
2018-08-06T10:41:54.719Z,30.92
2018-08-06T10:44:24.751Z,31.03
2018-08-06T10:46:54.867Z,31.08
2018-08-06T10:49:24.893Z,30.91
2018-08-06T10:51:55.012Z,31.27
2018-08-06T10:54:24.682Z,31.26
2018-08-06T10:56:54.774Z,31.47
2018-08-06T10:59:24.863Z,31.55
2018-08-06T11:01:55.001Z,31.51
2018-08-06T11:04:25.022Z,31.68
2018-08-06T11:06:55.125Z,31.38
2018-08-06T11:09:25.230Z,31.28
2018-08-06T11:11:56.307Z,31.28
2018-08-06T11:14:26.452Z,31.43
2018-08-06T11:16:56.597Z,31.54
2018-08-06T11:19:26.658Z,31.63
2018-08-06T11:21:56.719Z,31.75
2018-08-06T11:24:26.805Z,31.83
2018-08-06T11:26:56.844Z,31.81
2018-08-06T11:29:26.931Z,31.81
2018-08-06T11:31:57.059Z,31.80
2018-08-06T11:34:28.367Z,31.63
2018-08-06T11:36:58.894Z,31.90
2018-08-06T11:39:28.994Z,31.99
2018-08-06T11:41:59.685Z,32.05
2018-08-06T11:44:30.451Z,32.26
2018-08-06T11:47:00.561Z,32.03
2018-08-06T11:49:30.653Z,32.10
2018-08-06T11:52:00.727Z,31.99
2018-08-06T11:54:30.781Z,31.58
2018-08-06T11:57:00.800Z,31.71
2018-08-06T11:59:31.756Z,31.73
2018-08-06T12:02:01.984Z,31.88
2018-08-06T12:04:32.083Z,31.97
2018-08-06T12:07:02.422Z,32.24
2018-08-06T12:09:32.524Z,32.17
2018-08-06T12:12:02.589Z,32.01
2018-08-06T12:14:33.541Z,31.80
2018-08-06T12:17:03.647Z,31.72
2018-08-06T12:19:33.751Z,31.67
2018-08-06T12:22:03.847Z,31.31
2018-08-06T12:24:33.896Z,31.38
2018-08-06T12:27:03.974Z,31.37
2018-08-06T12:29:34.031Z,31.37
2018-08-06T12:32:04.127Z,31.40
2018-08-06T12:34:34.165Z,31.43
2018-08-06T12:37:04.313Z,31.69
2018-08-06T12:39:34.447Z,31.41
2018-08-06T12:42:04.152Z,31.44
2018-08-06T12:44:34.215Z,31.45
2018-08-06T12:47:04.314Z,31.52
2018-08-06T12:49:34.440Z,31.41
2018-08-06T12:52:04.089Z,31.50
2018-08-06T12:54:34.161Z,31.51
2018-08-06T12:57:04.194Z,31.59
2018-08-06T12:59:34.281Z,31.59
2018-08-06T13:02:04.380Z,31.25
2018-08-06T13:04:34.436Z,31.18
2018-08-06T13:07:04.470Z,31.17
2018-08-06T13:09:34.585Z,30.83
2018-08-06T13:12:04.686Z,31.05
2018-08-06T13:14:34.719Z,31.26
2018-08-06T13:17:04.747Z,31.53
2018-08-06T13:19:34.815Z,31.85
2018-08-06T13:22:04.869Z,32.06
2018-08-06T13:24:35.078Z,32.18
2018-08-06T13:27:05.500Z,32.39
2018-08-06T13:29:35.634Z,32.50
2018-08-06T13:32:05.703Z,32.60
2018-08-06T13:34:35.741Z,32.53
2018-08-06T13:37:05.851Z,32.76
2018-08-06T13:39:35.906Z,32.76
2018-08-06T13:42:06.307Z,32.82
2018-08-06T13:44:36.340Z,32.59
2018-08-06T13:47:07.714Z,32.71
2018-08-06T13:49:37.786Z,32.80
2018-08-06T13:52:07.917Z,32.68
2018-08-06T13:54:38.044Z,32.42
2018-08-06T13:57:08.032Z,32.48
2018-08-06T13:59:38.253Z,32.47
2018-08-06T14:02:08.242Z,32.58
2018-08-06T14:04:38.353Z,32.73
2018-08-06T14:07:08.498Z,32.82
2018-08-06T14:09:38.569Z,32.94
2018-08-06T14:12:08.771Z,32.75
2018-08-06T14:14:39.706Z,32.62
2018-08-06T14:17:09.732Z,32.71
2018-08-06T14:19:39.797Z,32.62
2018-08-06T14:22:10.856Z,32.65
2018-08-06T14:24:41.330Z,32.79
2018-08-06T14:27:11.867Z,32.94
2018-08-06T14:29:41.865Z,33.15
2018-08-06T14:32:12.393Z,33.31
2018-08-06T14:34:42.420Z,33.06
2018-08-06T14:37:12.496Z,33.02
2018-08-06T14:39:42.551Z,33.07
2018-08-06T14:42:12.579Z,33.11
2018-08-06T14:44:42.608Z,32.92
2018-08-06T14:47:12.749Z,32.88
2018-08-06T14:49:42.834Z,32.88
2018-08-06T14:52:13.129Z,32.97
2018-08-06T14:54:43.191Z,32.73
2018-08-06T14:57:13.295Z,33.13
2018-08-06T14:59:43.336Z,33.08
2018-08-06T15:02:13.482Z,33.01
2018-08-06T15:04:43.627Z,33.11
2018-08-06T15:07:13.691Z,32.97
2018-08-06T15:09:43.839Z,33.05
2018-08-06T15:12:13.965Z,33.24
2018-08-06T15:14:43.981Z,33.14
2018-08-06T15:17:14.017Z,33.29
2018-08-06T15:19:44.023Z,33.13
2018-08-06T15:22:14.065Z,33.13
2018-08-06T15:24:44.074Z,33.20
2018-08-06T15:27:14.161Z,33.15
2018-08-06T15:29:44.262Z,33.12
2018-08-06T15:32:14.463Z,33.02
2018-08-06T15:34:44.576Z,33.13
2018-08-06T15:37:14.878Z,32.95
2018-08-06T15:39:44.904Z,33.11
2018-08-06T15:42:15.019Z,33.05
2018-08-06T15:44:45.721Z,32.86
2018-08-06T15:47:15.886Z,32.81
2018-08-06T15:49:45.896Z,32.80
2018-08-06T15:52:15.924Z,32.69
2018-08-06T15:54:46.307Z,32.56
2018-08-06T15:57:16.469Z,32.54
2018-08-06T15:59:46.491Z,32.48
2018-08-06T16:02:16.569Z,32.55
2018-08-06T16:04:46.564Z,32.53
2018-08-06T16:07:16.678Z,32.55
2018-08-06T16:09:46.671Z,32.46
2018-08-06T16:12:16.815Z,32.41
2018-08-06T16:14:46.834Z,32.28
2018-08-06T16:17:16.943Z,32.30
2018-08-06T16:19:46.930Z,32.28
2018-08-06T16:22:16.995Z,32.18
2018-08-06T16:24:47.003Z,32.18
2018-08-06T16:27:17.278Z,32.16
2018-08-06T16:29:47.315Z,32.14
2018-08-06T16:32:17.457Z,32.05
2018-08-06T16:34:47.424Z,32.14
2018-08-06T16:37:17.555Z,32.08
2018-08-06T16:39:47.592Z,32.16
2018-08-06T16:42:17.717Z,32.16
2018-08-06T16:44:47.881Z,32.06
2018-08-06T16:47:17.716Z,31.93
2018-08-06T16:49:47.836Z,31.92
2018-08-06T16:52:18.035Z,32.02
2018-08-06T16:54:48.202Z,31.95
2018-08-06T16:57:18.471Z,31.91
2018-08-06T16:59:48.513Z,31.83
2018-08-06T17:02:18.674Z,31.79
2018-08-06T17:04:49.338Z,31.73
2018-08-06T17:07:19.546Z,31.54
2018-08-06T17:09:49.676Z,31.69
2018-08-06T17:12:19.785Z,31.65
2018-08-06T17:14:49.891Z,31.57
2018-08-06T17:17:20.220Z,31.66
2018-08-06T17:19:50.331Z,31.59
2018-08-06T17:22:20.479Z,31.54
2018-08-06T17:24:50.607Z,31.54
2018-08-06T17:27:21.468Z,31.36
2018-08-06T17:29:51.558Z,31.38
2018-08-06T17:32:21.697Z,31.32
2018-08-06T17:34:51.729Z,31.23
2018-08-06T17:37:21.899Z,31.16
2018-08-06T17:39:51.963Z,31.07
2018-08-06T17:42:22.045Z,30.98
2018-08-06T17:44:52.130Z,30.98
2018-08-06T17:47:22.333Z,31.01
2018-08-06T17:49:52.435Z,30.96
2018-08-06T17:52:22.504Z,30.90
2018-08-06T17:54:52.574Z,30.85
2018-08-06T17:57:22.718Z,30.71
2018-08-06T17:59:52.858Z,30.62
2018-08-06T18:02:22.931Z,30.57
2018-08-06T18:04:53.005Z,30.48
2018-08-06T18:07:23.150Z,30.44
2018-08-06T18:09:53.567Z,30.37
2018-08-06T18:12:23.798Z,30.24
2018-08-06T18:14:54.234Z,30.19
2018-08-06T18:17:24.406Z,30.16
2018-08-06T18:19:54.535Z,30.11
2018-08-06T18:22:24.698Z,30.03
2018-08-06T18:24:54.764Z,29.93
2018-08-06T18:27:25.108Z,29.76
2018-08-06T18:29:55.205Z,29.69
2018-08-06T18:32:25.441Z,29.65
2018-08-06T18:34:55.565Z,29.61
2018-08-06T18:37:25.663Z,29.55
2018-08-06T18:39:55.696Z,29.48
2018-08-06T18:42:26.050Z,29.41
2018-08-06T18:44:56.183Z,29.38
2018-08-06T18:47:26.623Z,29.32
2018-08-06T18:49:57.129Z,29.23
2018-08-06T18:52:27.237Z,29.10
2018-08-06T18:54:57.322Z,28.85
2018-08-06T18:57:28.465Z,28.74
2018-08-06T18:59:58.650Z,28.57
2018-08-06T19:02:28.804Z,28.43
2018-08-06T19:04:58.921Z,28.34
2018-08-06T19:07:29.106Z,28.01
2018-08-06T19:09:59.194Z,27.90
2018-08-06T19:12:34.521Z,27.81
2018-08-06T19:15:04.713Z,27.72
2018-08-06T19:17:38.918Z,27.54
2018-08-06T19:20:09.005Z,27.44
2018-08-06T19:22:39.621Z,27.30
2018-08-06T19:25:15.131Z,27.23
2018-08-06T19:27:45.396Z,27.10
2018-08-06T19:30:15.481Z,26.95
2018-08-06T19:32:45.624Z,26.93
2018-08-06T19:35:15.717Z,26.86
2018-08-06T19:37:47.863Z,26.74
2018-08-06T19:40:18.567Z,26.63
2018-08-06T19:42:53.693Z,26.56
2018-08-06T19:45:23.739Z,26.52
2018-08-06T19:47:54.199Z,26.42
2018-08-06T19:50:29.256Z,26.40
2018-08-06T19:52:59.382Z,26.28
2018-08-06T19:55:35.381Z,26.19
2018-08-06T19:58:05.517Z,26.13
2018-08-06T20:00:35.627Z,26.04
2018-08-06T20:03:05.989Z,25.96
2018-08-06T20:05:36.054Z,25.89
2018-08-06T20:08:06.338Z,25.83
2018-08-06T20:10:36.521Z,25.78
2018-08-06T20:13:06.718Z,25.71
2018-08-06T20:15:37.044Z,25.70
2018-08-06T20:18:07.132Z,25.63
2018-08-06T20:20:37.288Z,25.57
2018-08-06T20:23:07.650Z,25.53
2018-08-06T20:25:37.726Z,25.48
2018-08-06T20:28:07.949Z,25.42
2018-08-06T20:30:38.049Z,25.32
2018-08-06T20:33:08.599Z,25.29
2018-08-06T20:35:39.546Z,25.19
2018-08-06T20:38:09.636Z,25.12
2018-08-06T20:40:39.726Z,25.08
2018-08-06T20:43:09.835Z,25.04
2018-08-06T20:45:39.973Z,24.98
2018-08-06T20:48:10.111Z,25.00
2018-08-06T20:50:40.195Z,24.98
2018-08-06T20:53:10.258Z,24.92
2018-08-06T20:55:40.424Z,24.84
2018-08-06T20:58:10.483Z,24.83
2018-08-06T21:00:40.585Z,24.71
2018-08-06T21:03:10.727Z,24.67
2018-08-06T21:05:40.802Z,24.63
2018-08-06T21:08:10.860Z,24.63
2018-08-06T21:10:40.978Z,24.52
2018-08-06T21:13:11.074Z,24.64
2018-08-06T21:15:41.233Z,24.73
2018-08-06T21:18:11.293Z,24.86
2018-08-06T21:20:41.403Z,24.98
2018-08-06T21:23:11.472Z,25.07
2018-08-06T21:25:41.591Z,25.17
2018-08-06T21:28:11.618Z,25.13
2018-08-06T21:30:41.643Z,25.37
2018-08-06T21:33:11.755Z,25.44
2018-08-06T21:35:41.875Z,25.49
2018-08-06T21:38:11.950Z,25.58
2018-08-06T21:40:42.051Z,25.73
2018-08-06T21:43:12.177Z,25.76
2018-08-06T21:45:42.428Z,25.84
2018-08-06T21:48:12.542Z,25.90
2018-08-06T21:50:42.642Z,25.90
2018-08-06T21:53:12.790Z,25.86
2018-08-06T21:55:42.869Z,25.89
2018-08-06T21:58:12.970Z,25.92
2018-08-06T22:00:43.080Z,25.87
2018-08-06T22:03:15.563Z,25.91
2018-08-06T22:05:46.204Z,25.88
2018-08-06T22:08:16.485Z,25.88
2018-08-06T22:10:46.582Z,25.86
2018-08-06T22:13:16.691Z,25.85
2018-08-06T22:15:46.784Z,25.82
2018-08-06T22:18:16.899Z,25.86
2018-08-06T22:20:46.995Z,25.83
2018-08-06T22:23:17.097Z,25.73
2018-08-06T22:25:47.205Z,25.65
2018-08-06T22:28:17.346Z,25.57
2018-08-06T22:30:47.585Z,25.52
2018-08-06T22:33:17.673Z,25.48
2018-08-06T22:35:47.803Z,25.53
2018-08-06T22:38:18.013Z,25.49
2018-08-06T22:40:48.178Z,25.44
2018-08-06T22:43:18.298Z,25.34
2018-08-06T22:45:48.357Z,25.29
2018-08-06T22:48:18.456Z,25.29
2018-08-06T22:50:48.516Z,25.25
2018-08-06T22:53:18.604Z,25.25
2018-08-06T22:56:23.746Z,25.18
2018-08-06T22:58:53.837Z,25.17
2018-08-06T23:01:23.929Z,25.11
2018-08-06T23:03:54.060Z,25.10
2018-08-06T23:06:24.183Z,24.90
2018-08-06T23:08:54.370Z,25.00
2018-08-06T23:11:24.400Z,25.03
2018-08-06T23:13:55.290Z,25.00
2018-08-06T23:16:25.375Z,25.09
2018-08-06T23:18:55.466Z,24.88
2018-08-06T23:21:25.489Z,24.78
2018-08-06T23:23:55.552Z,24.78
2018-08-06T23:26:25.689Z,24.75
2018-08-06T23:28:55.786Z,24.76
2018-08-06T23:31:25.900Z,24.77
2018-08-06T23:33:56.119Z,24.83
2018-08-06T23:36:26.161Z,24.80
2018-08-06T23:38:56.256Z,24.83
2018-08-06T23:41:26.343Z,24.81
2018-08-06T23:43:56.033Z,24.79
2018-08-06T23:46:27.120Z,24.76
2018-08-06T23:48:57.257Z,24.77
2018-08-06T23:51:27.384Z,24.71
2018-08-06T23:53:57.546Z,24.63
2018-08-06T23:56:27.707Z,24.62
2018-08-06T23:58:57.784Z,24.59
